Strona główna
METAR-TAF:

METAR-TAF

Lotnisko :

Port lotniczy Damaszek

Damaszek, Syria

Szerokość geograficzna: 33-25N, Długość geograficzna: 036-31E, wysokość: 608 m

Aktualna obserwacja pogody

Raport powstał 25 minut temu, godzina 22:00 UTC
Wiatr 5 kt od południe
Temperatura 9°C
Wilgotność 93%
Ciśnienie 1015 hPa
Rozproszone chmury na wysokości 2600 ft
Przerywane chmury na wysokości 3000 ft

METAR: OSDI 082200Z 17005KT 5000RA SCT026 BKN030 09/08 Q1015

czas: 00:25 (22:25 UTC)

Prognoza

Prognoza ważna od 08 godzina 18 UTC do 09 godzina 24 UTC
Wiatr 10 kt od południe
Widzialność 10 km lub więcej
Mało chmury na wysokości 3000 ft
Rozproszone chmury na wysokości 10000 ft
Przejściowo
od 08 godzina 18 UTC do 09 godzina 18 UTC
Wiatr 15 kt od południowy zachód w porywach dochodzący do 25 kt
Mało chmury na wysokości 2500 ft, Cumulonimbus.
Rozproszone chmury na wysokości 3000 ft
Przerywane chmury na wysokości 9000 ft

TAF: OSDI 0818/0924 17010KT 9999 FEW030 SCT100 TEMPO 0818/0918 22015G25KT 6000SHRA FEW025CB SCT030 BKN090

Obserwacja i prognoza pogody dla ponad 4000 lotnisk (raport METAR i TAF).

Dostępne stacje oznaczono żółtymi i czerwonymi punktami na mapie.

Najedź kursorem aby zobaczyć nazwę stacji.

Kliknij aby zobaczyć obserwacje i prognozy pogody.

Aby zmienić mapę: kliknij na zielony przycisk z czarnym krzyżykiem, aby powiększyć; na zielony przycisk z myślnikiem, aby pomniejszyć; na zielone strzałki, aby przejść do map sąsiednich.


METAR-TAF: